sensor_id;sensor_type;location;lat;lon;timestamp;P1;durP1;ratioP1;P2;durP2;ratioP2
3369;SDS011;42042;51.948;7.628;2022-09-16T00:00:02;7.23;;;2.57;;
3369;SDS011;42042;51.948;7.628;2022-09-16T00:02:30;1.70;;;1.60;;
3369;SDS011;42042;51.948;7.628;2022-09-16T00:04:57;3.07;;;1.87;;
3369;SDS011;42042;51.948;7.628;2022-09-16T00:07:26;5.27;;;2.30;;
3369;SDS011;42042;51.948;7.628;2022-09-16T00:09:53;2.40;;;1.83;;
3369;SDS011;42042;51.948;7.628;2022-09-16T00:12:20;8.10;;;1.97;;
3369;SDS011;42042;51.948;7.628;2022-09-16T00:14:47;3.50;;;1.80;;
3369;SDS011;42042;51.948;7.628;2022-09-16T00:17:14;2.60;;;1.70;;
3369;SDS011;42042;51.948;7.628;2022-09-16T00:19:42;1.57;;;1.47;;
3369;SDS011;42042;51.948;7.628;2022-09-16T00:22:09;3.63;;;1.93;;
3369;SDS011;42042;51.948;7.628;2022-09-16T00:24:38;5.77;;;1.67;;
3369;SDS011;42042;51.948;7.628;2022-09-16T00:27:05;3.10;;;1.60;;
3369;SDS011;42042;51.948;7.628;2022-09-16T00:29:33;4.63;;;1.73;;
3369;SDS011;42042;51.948;7.628;2022-09-16T00:32:01;2.00;;;1.43;;
3369;SDS011;42042;51.948;7.628;2022-09-16T00:34:28;4.10;;;1.90;;
3369;SDS011;42042;51.948;7.628;2022-09-16T00:36:55;2.10;;;1.40;;
3369;SDS011;42042;51.948;7.628;2022-09-16T00:39:22;4.90;;;1.60;;
3369;SDS011;42042;51.948;7.628;2022-09-16T00:41:51;6.23;;;1.87;;
3369;SDS011;42042;51.948;7.628;2022-09-16T00:47:04;3.67;;;2.33;;
3369;SDS011;42042;51.948;7.628;2022-09-16T00:49:32;3.57;;;1.70;;
3369;SDS011;42042;51.948;7.628;2022-09-16T00:52:00;3.73;;;1.80;;
3369;SDS011;42042;51.948;7.628;2022-09-16T00:54:28;2.40;;;1.67;;
3369;SDS011;42042;51.948;7.628;2022-09-16T00:56:57;3.80;;;2.00;;
3369;SDS011;42042;51.948;7.628;2022-09-16T00:59:25;4.00;;;1.80;;
3369;SDS011;42042;51.948;7.628;2022-09-16T01:01:53;4.00;;;2.03;;
3369;SDS011;42042;51.948;7.628;2022-09-16T01:04:22;4.70;;;2.93;;
3369;SDS011;42042;51.948;7.628;2022-09-16T01:06:51;8.67;;;2.00;;
3369;SDS011;42042;51.948;7.628;2022-09-16T01:09:20;4.30;;;2.10;;
3369;SDS011;42042;51.948;7.628;2022-09-16T01:11:47;11.20;;;2.30;;
3369;SDS011;42042;51.948;7.628;2022-09-16T01:14:17;6.10;;;2.43;;
3369;SDS011;42042;51.948;7.628;2022-09-16T01:17:05;4.90;;;2.37;;
3369;SDS011;42042;51.948;7.628;2022-09-16T01:19:50;3.00;;;1.90;;
3369;SDS011;42042;51.948;7.628;2022-09-16T01:22:26;8.97;;;2.63;;
3369;SDS011;42042;51.948;7.628;2022-09-16T01:24:58;5.53;;;2.50;;
3369;SDS011;42042;51.948;7.628;2022-09-16T01:30:15;5.27;;;2.60;;
3369;SDS011;42042;51.948;7.628;2022-09-16T01:32:48;2.77;;;2.20;;
3369;SDS011;42042;51.948;7.628;2022-09-16T01:35:19;6.80;;;3.00;;
3369;SDS011;42042;51.948;7.628;2022-09-16T01:37:51;2.87;;;2.60;;
3369;SDS011;42042;51.948;7.628;2022-09-16T01:40:21;4.60;;;2.33;;
3369;SDS011;42042;51.948;7.628;2022-09-16T01:42:56;5.17;;;2.60;;
3369;SDS011;42042;51.948;7.628;2022-09-16T01:45:26;5.60;;;2.77;;
3369;SDS011;42042;51.948;7.628;2022-09-16T01:47:59;5.60;;;3.07;;
3369;SDS011;42042;51.948;7.628;2022-09-16T01:50:31;7.77;;;2.90;;
3369;SDS011;42042;51.948;7.628;2022-09-16T01:53:00;4.67;;;2.53;;
3369;SDS011;42042;51.948;7.628;2022-09-16T01:55:32;3.00;;;2.47;;
3369;SDS011;42042;51.948;7.628;2022-09-16T01:58:02;7.80;;;2.43;;
3369;SDS011;42042;51.948;7.628;2022-09-16T02:00:32;6.70;;;2.70;;
3369;SDS011;42042;51.948;7.628;2022-09-16T02:03:02;3.93;;;2.30;;
3369;SDS011;42042;51.948;7.628;2022-09-16T02:05:32;2.30;;;2.10;;
3369;SDS011;42042;51.948;7.628;2022-09-16T02:08:01;2.70;;;2.50;;
3369;SDS011;42042;51.948;7.628;2022-09-16T02:10:30;2.50;;;2.00;;
3369;SDS011;42042;51.948;7.628;2022-09-16T02:13:07;8.33;;;2.40;;
3369;SDS011;42042;51.948;7.628;2022-09-16T02:15:36;5.40;;;2.70;;
3369;SDS011;42042;51.948;7.628;2022-09-16T02:18:08;3.67;;;2.40;;
3369;SDS011;42042;51.948;7.628;2022-09-16T02:20:37;5.67;;;2.03;;
3369;SDS011;42042;51.948;7.628;2022-09-16T02:23:08;5.87;;;3.73;;
3369;SDS011;42042;51.948;7.628;2022-09-16T02:25:38;2.73;;;2.07;;
3369;SDS011;42042;51.948;7.628;2022-09-16T02:28:07;3.43;;;2.07;;
3369;SDS011;42042;51.948;7.628;2022-09-16T02:30:36;2.93;;;1.80;;
3369;SDS011;42042;51.948;7.628;2022-09-16T02:33:07;3.67;;;2.37;;
3369;SDS011;42042;51.948;7.628;2022-09-16T02:35:35;6.20;;;2.23;;
3369;SDS011;42042;51.948;7.628;2022-09-16T02:38:05;4.17;;;2.07;;
3369;SDS011;42042;51.948;7.628;2022-09-16T02:40:36;2.77;;;2.10;;
3369;SDS011;42042;51.948;7.628;2022-09-16T02:43:07;6.17;;;2.60;;
3369;SDS011;42042;51.948;7.628;2022-09-16T02:45:36;8.37;;;2.50;;
3369;SDS011;42042;51.948;7.628;2022-09-16T02:48:08;4.80;;;2.70;;
3369;SDS011;42042;51.948;7.628;2022-09-16T02:50:39;3.00;;;2.70;;
3369;SDS011;42042;51.948;7.628;2022-09-16T02:53:09;4.63;;;2.63;;
3369;SDS011;42042;51.948;7.628;2022-09-16T02:55:40;5.90;;;4.40;;
3369;SDS011;42042;51.948;7.628;2022-09-16T02:58:12;4.30;;;3.00;;
3369;SDS011;42042;51.948;7.628;2022-09-16T03:00:40;2.63;;;2.33;;
3369;SDS011;42042;51.948;7.628;2022-09-16T03:03:11;5.00;;;3.30;;
3369;SDS011;42042;51.948;7.628;2022-09-16T03:05:48;5.53;;;3.10;;
3369;SDS011;42042;51.948;7.628;2022-09-16T03:08:24;8.90;;;3.90;;
3369;SDS011;42042;51.948;7.628;2022-09-16T03:10:51;10.50;;;4.10;;
3369;SDS011;42042;51.948;7.628;2022-09-16T03:13:20;7.97;;;3.73;;
3369;SDS011;42042;51.948;7.628;2022-09-16T03:15:51;7.90;;;3.53;;
3369;SDS011;42042;51.948;7.628;2022-09-16T03:18:31;4.30;;;3.60;;
3369;SDS011;42042;51.948;7.628;2022-09-16T03:21:03;11.20;;;4.30;;
3369;SDS011;42042;51.948;7.628;2022-09-16T03:23:38;5.00;;;4.47;;
3369;SDS011;42042;51.948;7.628;2022-09-16T03:26:10;7.20;;;3.60;;
3369;SDS011;42042;51.948;7.628;2022-09-16T03:28:41;8.03;;;4.13;;
3369;SDS011;42042;51.948;7.628;2022-09-16T03:31:12;10.07;;;4.10;;
3369;SDS011;42042;51.948;7.628;2022-09-16T03:33:45;10.03;;;4.00;;
3369;SDS011;42042;51.948;7.628;2022-09-16T03:36:14;5.13;;;4.23;;
3369;SDS011;42042;51.948;7.628;2022-09-16T03:38:44;5.97;;;4.83;;
3369;SDS011;42042;51.948;7.628;2022-09-16T03:41:12;8.37;;;4.73;;
3369;SDS011;42042;51.948;7.628;2022-09-16T03:43:50;10.83;;;4.63;;
3369;SDS011;42042;51.948;7.628;2022-09-16T03:46:17;8.20;;;4.47;;
3369;SDS011;42042;51.948;7.628;2022-09-16T03:48:46;11.43;;;4.93;;
3369;SDS011;42042;51.948;7.628;2022-09-16T03:51:13;6.70;;;4.87;;
3369;SDS011;42042;51.948;7.628;2022-09-16T03:53:40;6.70;;;4.77;;
3369;SDS011;42042;51.948;7.628;2022-09-16T03:56:08;9.20;;;5.77;;
3369;SDS011;42042;51.948;7.628;2022-09-16T03:58:35;13.00;;;4.80;;
3369;SDS011;42042;51.948;7.628;2022-09-16T04:01:02;11.43;;;4.80;;
3369;SDS011;42042;51.948;7.628;2022-09-16T04:03:29;6.70;;;4.43;;
3369;SDS011;42042;51.948;7.628;2022-09-16T04:05:58;6.43;;;4.97;;
3369;SDS011;42042;51.948;7.628;2022-09-16T04:08:25;7.43;;;4.50;;
3369;SDS011;42042;51.948;7.628;2022-09-16T04:10:53;9.30;;;5.10;;
3369;SDS011;42042;51.948;7.628;2022-09-16T04:13:20;9.40;;;5.17;;
3369;SDS011;42042;51.948;7.628;2022-09-16T04:15:48;8.63;;;4.70;;
3369;SDS011;42042;51.948;7.628;2022-09-16T04:18:16;8.00;;;5.27;;
3369;SDS011;42042;51.948;7.628;2022-09-16T04:20:43;11.70;;;5.30;;
3369;SDS011;42042;51.948;7.628;2022-09-16T04:23:12;13.47;;;5.50;;
3369;SDS011;42042;51.948;7.628;2022-09-16T04:25:39;7.50;;;4.50;;
3369;SDS011;42042;51.948;7.628;2022-09-16T04:28:06;11.10;;;4.20;;
3369;SDS011;42042;51.948;7.628;2022-09-16T04:30:33;6.40;;;4.43;;
3369;SDS011;42042;51.948;7.628;2022-09-16T04:33:02;7.10;;;4.43;;
3369;SDS011;42042;51.948;7.628;2022-09-16T04:35:29;7.93;;;4.00;;
3369;SDS011;42042;51.948;7.628;2022-09-16T04:37:56;7.17;;;4.33;;
3369;SDS011;42042;51.948;7.628;2022-09-16T04:40:25;8.43;;;4.30;;
3369;SDS011;42042;51.948;7.628;2022-09-16T04:42:52;6.20;;;4.33;;
3369;SDS011;42042;51.948;7.628;2022-09-16T04:45:19;9.23;;;3.30;;
3369;SDS011;42042;51.948;7.628;2022-09-16T04:47:47;4.77;;;3.47;;
3369;SDS011;42042;51.948;7.628;2022-09-16T04:50:14;5.53;;;3.43;;
3369;SDS011;42042;51.948;7.628;2022-09-16T04:52:41;9.47;;;4.10;;
3369;SDS011;42042;51.948;7.628;2022-09-16T04:55:08;8.63;;;3.80;;
3369;SDS011;42042;51.948;7.628;2022-09-16T04:57:37;4.90;;;3.23;;
3369;SDS011;42042;51.948;7.628;2022-09-16T05:00:06;11.63;;;4.30;;
3369;SDS011;42042;51.948;7.628;2022-09-16T05:02:34;9.50;;;3.77;;
3369;SDS011;42042;51.948;7.628;2022-09-16T05:05:01;5.63;;;4.10;;
3369;SDS011;42042;51.948;7.628;2022-09-16T05:07:28;7.10;;;3.10;;
3369;SDS011;42042;51.948;7.628;2022-09-16T05:09:55;5.83;;;2.97;;
3369;SDS011;42042;51.948;7.628;2022-09-16T05:12:22;3.53;;;3.13;;
3369;SDS011;42042;51.948;7.628;2022-09-16T05:14:51;3.43;;;2.40;;
3369;SDS011;42042;51.948;7.628;2022-09-16T05:17:18;7.00;;;2.47;;
3369;SDS011;42042;51.948;7.628;2022-09-16T05:19:45;4.10;;;2.40;;
3369;SDS011;42042;51.948;7.628;2022-09-16T05:22:13;3.07;;;2.77;;
3369;SDS011;42042;51.948;7.628;2022-09-16T05:24:40;3.00;;;2.53;;
3369;SDS011;42042;51.948;7.628;2022-09-16T05:27:08;6.07;;;2.07;;
3369;SDS011;42042;51.948;7.628;2022-09-16T05:29:35;7.03;;;2.20;;
3369;SDS011;42042;51.948;7.628;2022-09-16T05:32:04;5.23;;;2.20;;
3369;SDS011;42042;51.948;7.628;2022-09-16T05:34:31;2.73;;;1.83;;
3369;SDS011;42042;51.948;7.628;2022-09-16T05:37:01;2.57;;;1.97;;
3369;SDS011;42042;51.948;7.628;2022-09-16T05:39:28;8.20;;;2.33;;
3369;SDS011;42042;51.948;7.628;2022-09-16T05:41:55;4.93;;;2.80;;
3369;SDS011;42042;51.948;7.628;2022-09-16T05:44:23;4.10;;;2.00;;
3369;SDS011;42042;51.948;7.628;2022-09-16T05:46:50;3.03;;;2.30;;
3369;SDS011;42042;51.948;7.628;2022-09-16T05:49:19;3.67;;;1.60;;
3369;SDS011;42042;51.948;7.628;2022-09-16T05:51:47;4.57;;;1.77;;
3369;SDS011;42042;51.948;7.628;2022-09-16T05:54:15;8.60;;;1.97;;
3369;SDS011;42042;51.948;7.628;2022-09-16T05:56:43;7.97;;;2.25;;
3369;SDS011;42042;51.948;7.628;2022-09-16T05:59:11;3.73;;;2.10;;
3369;SDS011;42042;51.948;7.628;2022-09-16T06:01:38;4.67;;;1.87;;
3369;SDS011;42042;51.948;7.628;2022-09-16T06:04:06;5.37;;;1.90;;
3369;SDS011;42042;51.948;7.628;2022-09-16T06:06:35;4.40;;;2.00;;
3369;SDS011;42042;51.948;7.628;2022-09-16T06:09:03;5.87;;;2.00;;
3369;SDS011;42042;51.948;7.628;2022-09-16T06:11:31;3.20;;;1.80;;
3369;SDS011;42042;51.948;7.628;2022-09-16T06:13:59;2.20;;;1.93;;
3369;SDS011;42042;51.948;7.628;2022-09-16T06:16:26;3.20;;;2.40;;
3369;SDS011;42042;51.948;7.628;2022-09-16T06:18:56;5.40;;;1.87;;
3369;SDS011;42042;51.948;7.628;2022-09-16T06:21:23;4.17;;;2.23;;
3369;SDS011;42042;51.948;7.628;2022-09-16T06:23:52;5.43;;;1.93;;
3369;SDS011;42042;51.948;7.628;2022-09-16T06:26:20;7.87;;;2.07;;
3369;SDS011;42042;51.948;7.628;2022-09-16T06:28:48;3.67;;;2.37;;
3369;SDS011;42042;51.948;7.628;2022-09-16T06:31:16;4.40;;;2.00;;
3369;SDS011;42042;51.948;7.628;2022-09-16T06:33:44;7.57;;;2.77;;
3369;SDS011;42042;51.948;7.628;2022-09-16T06:36:12;3.70;;;2.60;;
3369;SDS011;42042;51.948;7.628;2022-09-16T06:38:40;3.67;;;2.20;;
3369;SDS011;42042;51.948;7.628;2022-09-16T06:41:09;3.00;;;2.30;;
3369;SDS011;42042;51.948;7.628;2022-09-16T06:43:37;4.60;;;2.20;;
3369;SDS011;42042;51.948;7.628;2022-09-16T06:46:05;3.30;;;1.90;;
3369;SDS011;42042;51.948;7.628;2022-09-16T06:48:34;2.67;;;2.17;;
3369;SDS011;42042;51.948;7.628;2022-09-16T06:51:02;2.40;;;2.20;;
3369;SDS011;42042;51.948;7.628;2022-09-16T06:53:30;5.40;;;1.83;;
3369;SDS011;42042;51.948;7.628;2022-09-16T06:55:58;4.47;;;2.27;;
3369;SDS011;42042;51.948;7.628;2022-09-16T06:58:30;2.40;;;2.20;;
3369;SDS011;42042;51.948;7.628;2022-09-16T07:00:57;5.03;;;2.00;;
3369;SDS011;42042;51.948;7.628;2022-09-16T07:03:25;6.23;;;2.40;;
3369;SDS011;42042;51.948;7.628;2022-09-16T07:05:55;4.33;;;1.90;;
3369;SDS011;42042;51.948;7.628;2022-09-16T07:08:22;4.60;;;2.10;;
3369;SDS011;42042;51.948;7.628;2022-09-16T07:10:54;7.03;;;1.63;;
3369;SDS011;42042;51.948;7.628;2022-09-16T07:13:21;2.10;;;1.90;;
3369;SDS011;42042;51.948;7.628;2022-09-16T07:15:50;1.43;;;1.33;;
3369;SDS011;42042;51.948;7.628;2022-09-16T07:18:17;2.50;;;1.50;;
3369;SDS011;42042;51.948;7.628;2022-09-16T07:20:45;3.43;;;2.47;;
3369;SDS011;42042;51.948;7.628;2022-09-16T07:23:12;2.40;;;1.50;;
3369;SDS011;42042;51.948;7.628;2022-09-16T07:25:39;1.40;;;1.30;;
3369;SDS011;42042;51.948;7.628;2022-09-16T07:28:06;2.83;;;1.70;;
3369;SDS011;42042;51.948;7.628;2022-09-16T07:30:33;4.47;;;2.13;;
3369;SDS011;42042;51.948;7.628;2022-09-16T07:33:02;4.80;;;1.80;;
3369;SDS011;42042;51.948;7.628;2022-09-16T07:35:29;2.83;;;1.30;;
3369;SDS011;42042;51.948;7.628;2022-09-16T07:37:58;3.67;;;1.60;;
3369;SDS011;42042;51.948;7.628;2022-09-16T07:40:26;1.90;;;1.33;;
3369;SDS011;42042;51.948;7.628;2022-09-16T07:42:53;1.70;;;1.40;;
3369;SDS011;42042;51.948;7.628;2022-09-16T07:45:20;1.80;;;1.30;;
3369;SDS011;42042;51.948;7.628;2022-09-16T07:47:48;1.70;;;1.20;;
3369;SDS011;42042;51.948;7.628;2022-09-16T07:50:17;2.50;;;1.33;;
3369;SDS011;42042;51.948;7.628;2022-09-16T07:52:44;2.67;;;1.17;;
3369;SDS011;42042;51.948;7.628;2022-09-16T07:55:11;1.40;;;1.30;;
3369;SDS011;42042;51.948;7.628;2022-09-16T07:57:40;2.10;;;1.30;;
3369;SDS011;42042;51.948;7.628;2022-09-16T08:00:07;5.10;;;1.70;;
3369;SDS011;42042;51.948;7.628;2022-09-16T08:02:35;4.30;;;1.43;;
3369;SDS011;42042;51.948;7.628;2022-09-16T08:05:02;6.43;;;1.50;;
3369;SDS011;42042;51.948;7.628;2022-09-16T08:07:31;2.87;;;1.37;;
3369;SDS011;42042;51.948;7.628;2022-09-16T08:09:58;2.03;;;1.10;;
3369;SDS011;42042;51.948;7.628;2022-09-16T08:12:25;2.77;;;1.33;;
3369;SDS011;42042;51.948;7.628;2022-09-16T08:14:56;4.40;;;1.73;;
3369;SDS011;42042;51.948;7.628;2022-09-16T08:17:24;3.90;;;1.70;;
3369;SDS011;42042;51.948;7.628;2022-09-16T08:19:52;3.07;;;1.70;;
3369;SDS011;42042;51.948;7.628;2022-09-16T08:22:19;2.67;;;1.63;;
3369;SDS011;42042;51.948;7.628;2022-09-16T08:24:48;2.93;;;1.77;;
3369;SDS011;42042;51.948;7.628;2022-09-16T08:27:16;3.10;;;1.60;;
3369;SDS011;42042;51.948;7.628;2022-09-16T08:29:43;6.13;;;1.60;;
3369;SDS011;42042;51.948;7.628;2022-09-16T08:32:10;3.47;;;1.57;;
3369;SDS011;42042;51.948;7.628;2022-09-16T08:34:38;3.37;;;1.67;;
3369;SDS011;42042;51.948;7.628;2022-09-16T08:37:05;5.20;;;1.43;;
3369;SDS011;42042;51.948;7.628;2022-09-16T08:39:33;10.80;;;2.17;;
3369;SDS011;42042;51.948;7.628;2022-09-16T08:44:47;4.60;;;2.13;;
3369;SDS011;42042;51.948;7.628;2022-09-16T08:47:21;5.57;;;1.70;;
3369;SDS011;42042;51.948;7.628;2022-09-16T08:49:49;4.20;;;1.50;;
3369;SDS011;42042;51.948;7.628;2022-09-16T08:52:21;5.23;;;1.60;;
3369;SDS011;42042;51.948;7.628;2022-09-16T08:54:52;3.10;;;1.60;;
3369;SDS011;42042;51.948;7.628;2022-09-16T08:57:21;6.40;;;1.60;;
3369;SDS011;42042;51.948;7.628;2022-09-16T08:59:51;4.20;;;1.63;;
3369;SDS011;42042;51.948;7.628;2022-09-16T09:02:23;3.90;;;1.30;;
3369;SDS011;42042;51.948;7.628;2022-09-16T09:04:52;2.83;;;1.80;;
3369;SDS011;42042;51.948;7.628;2022-09-16T09:07:22;2.20;;;1.33;;
3369;SDS011;42042;51.948;7.628;2022-09-16T09:09:53;5.93;;;1.87;;
3369;SDS011;42042;51.948;7.628;2022-09-16T09:12:28;4.33;;;1.67;;
3369;SDS011;42042;51.948;7.628;2022-09-16T09:15:03;7.63;;;1.57;;
3369;SDS011;42042;51.948;7.628;2022-09-16T09:17:34;5.37;;;1.80;;
3369;SDS011;42042;51.948;7.628;2022-09-16T09:20:06;7.23;;;2.37;;
3369;SDS011;42042;51.948;7.628;2022-09-16T09:22:43;7.23;;;1.73;;
3369;SDS011;42042;51.948;7.628;2022-09-16T09:25:19;6.83;;;1.93;;
3369;SDS011;42042;51.948;7.628;2022-09-16T09:27:50;5.93;;;1.80;;
3369;SDS011;42042;51.948;7.628;2022-09-16T09:30:22;8.23;;;1.80;;
3369;SDS011;42042;51.948;7.628;2022-09-16T09:32:56;7.20;;;2.00;;
3369;SDS011;42042;51.948;7.628;2022-09-16T09:35:30;7.90;;;1.90;;
3369;SDS011;42042;51.948;7.628;2022-09-16T09:38:08;12.17;;;2.00;;
3369;SDS011;42042;51.948;7.628;2022-09-16T09:40:39;5.20;;;1.80;;
3369;SDS011;42042;51.948;7.628;2022-09-16T09:43:09;5.40;;;1.83;;
3369;SDS011;42042;51.948;7.628;2022-09-16T09:45:41;7.17;;;2.10;;
3369;SDS011;42042;51.948;7.628;2022-09-16T09:48:12;4.20;;;1.67;;
3369;SDS011;42042;51.948;7.628;2022-09-16T09:50:43;4.93;;;2.87;;
3369;SDS011;42042;51.948;7.628;2022-09-16T09:53:11;2.17;;;1.10;;
3369;SDS011;42042;51.948;7.628;2022-09-16T09:55:40;7.43;;;2.40;;
3369;SDS011;42042;51.948;7.628;2022-09-16T09:58:14;4.90;;;1.83;;
3369;SDS011;42042;51.948;7.628;2022-09-16T10:00:44;5.50;;;1.80;;
3369;SDS011;42042;51.948;7.628;2022-09-16T10:03:12;8.73;;;1.90;;
3369;SDS011;42042;51.948;7.628;2022-09-16T10:05:40;3.67;;;1.53;;
3369;SDS011;42042;51.948;7.628;2022-09-16T10:08:11;4.10;;;1.50;;
3369;SDS011;42042;51.948;7.628;2022-09-16T10:10:40;4.40;;;1.70;;
3369;SDS011;42042;51.948;7.628;2022-09-16T10:13:12;6.03;;;2.13;;
3369;SDS011;42042;51.948;7.628;2022-09-16T10:15:40;4.80;;;1.37;;
3369;SDS011;42042;51.948;7.628;2022-09-16T10:18:11;3.77;;;2.03;;
3369;SDS011;42042;51.948;7.628;2022-09-16T10:20:41;6.37;;;1.67;;
3369;SDS011;42042;51.948;7.628;2022-09-16T10:23:09;4.27;;;1.23;;
3369;SDS011;42042;51.948;7.628;2022-09-16T10:25:37;5.47;;;1.70;;
3369;SDS011;42042;51.948;7.628;2022-09-16T10:28:05;9.47;;;1.67;;
3369;SDS011;42042;51.948;7.628;2022-09-16T10:30:44;9.33;;;2.07;;
3369;SDS011;42042;51.948;7.628;2022-09-16T10:33:15;10.40;;;1.83;;
3369;SDS011;42042;51.948;7.628;2022-09-16T10:35:50;3.90;;;2.27;;
3369;SDS011;42042;51.948;7.628;2022-09-16T10:38:20;4.60;;;1.77;;
3369;SDS011;42042;51.948;7.628;2022-09-16T10:40:51;7.80;;;1.77;;
3369;SDS011;42042;51.948;7.628;2022-09-16T10:43:19;6.53;;;1.43;;
3369;SDS011;42042;51.948;7.628;2022-09-16T10:45:47;5.80;;;2.07;;
3369;SDS011;42042;51.948;7.628;2022-09-16T10:48:17;5.77;;;1.43;;
3369;SDS011;42042;51.948;7.628;2022-09-16T10:50:51;5.57;;;1.40;;
3369;SDS011;42042;51.948;7.628;2022-09-16T10:53:20;2.93;;;1.30;;
3369;SDS011;42042;51.948;7.628;2022-09-16T10:55:55;7.23;;;1.90;;
3369;SDS011;42042;51.948;7.628;2022-09-16T10:58:22;9.43;;;1.70;;
3369;SDS011;42042;51.948;7.628;2022-09-16T11:00:53;5.70;;;1.40;;
3369;SDS011;42042;51.948;7.628;2022-09-16T11:03:43;4.63;;;1.50;;
3369;SDS011;42042;51.948;7.628;2022-09-16T11:06:21;2.90;;;1.23;;
3369;SDS011;42042;51.948;7.628;2022-09-16T11:08:54;3.20;;;1.40;;
3369;SDS011;42042;51.948;7.628;2022-09-16T11:11:28;3.37;;;1.20;;
3369;SDS011;42042;51.948;7.628;2022-09-16T11:13:59;3.83;;;1.43;;
3369;SDS011;42042;51.948;7.628;2022-09-16T11:16:32;1.10;;;1.00;;
3369;SDS011;42042;51.948;7.628;2022-09-16T11:19:05;4.60;;;1.37;;
3369;SDS011;42042;51.948;7.628;2022-09-16T11:21:37;4.63;;;1.30;;
3369;SDS011;42042;51.948;7.628;2022-09-16T11:24:16;5.57;;;1.53;;
3369;SDS011;42042;51.948;7.628;2022-09-16T11:26:49;4.73;;;1.83;;
3369;SDS011;42042;51.948;7.628;2022-09-16T11:29:26;3.47;;;1.30;;
3369;SDS011;42042;51.948;7.628;2022-09-16T11:32:01;4.20;;;1.27;;
3369;SDS011;42042;51.948;7.628;2022-09-16T11:34:36;1.93;;;1.23;;
3369;SDS011;42042;51.948;7.628;2022-09-16T11:37:09;2.60;;;1.23;;
3369;SDS011;42042;51.948;7.628;2022-09-16T11:39:43;5.13;;;1.60;;
3369;SDS011;42042;51.948;7.628;2022-09-16T11:42:14;4.13;;;1.50;;
3369;SDS011;42042;51.948;7.628;2022-09-16T11:44:45;4.37;;;1.80;;
3369;SDS011;42042;51.948;7.628;2022-09-16T11:47:21;3.00;;;1.40;;
3369;SDS011;42042;51.948;7.628;2022-09-16T11:49:58;4.93;;;1.57;;
3369;SDS011;42042;51.948;7.628;2022-09-16T11:52:32;4.23;;;1.30;;
3369;SDS011;42042;51.948;7.628;2022-09-16T11:55:11;3.23;;;1.63;;
3369;SDS011;42042;51.948;7.628;2022-09-16T11:57:40;4.63;;;2.73;;
3369;SDS011;42042;51.948;7.628;2022-09-16T12:00:09;5.60;;;1.80;;
3369;SDS011;42042;51.948;7.628;2022-09-16T12:02:39;4.00;;;1.30;;
3369;SDS011;42042;51.948;7.628;2022-09-16T12:05:10;2.60;;;1.20;;
3369;SDS011;42042;51.948;7.628;2022-09-16T12:07:41;5.20;;;1.60;;
3369;SDS011;42042;51.948;7.628;2022-09-16T12:10:11;3.73;;;1.47;;
3369;SDS011;42042;51.948;7.628;2022-09-16T12:12:43;6.87;;;1.50;;
3369;SDS011;42042;51.948;7.628;2022-09-16T12:15:14;5.13;;;2.00;;
3369;SDS011;42042;51.948;7.628;2022-09-16T12:17:46;2.37;;;1.30;;
3369;SDS011;42042;51.948;7.628;2022-09-16T12:20:19;5.00;;;1.60;;
3369;SDS011;42042;51.948;7.628;2022-09-16T12:22:48;4.40;;;1.73;;
3369;SDS011;42042;51.948;7.628;2022-09-16T12:25:18;7.17;;;1.90;;
3369;SDS011;42042;51.948;7.628;2022-09-16T12:27:47;3.20;;;1.40;;
3369;SDS011;42042;51.948;7.628;2022-09-16T12:30:17;4.00;;;1.43;;
3369;SDS011;42042;51.948;7.628;2022-09-16T12:32:55;1.83;;;1.27;;
3369;SDS011;42042;51.948;7.628;2022-09-16T12:35:25;3.70;;;1.57;;
3369;SDS011;42042;51.948;7.628;2022-09-16T12:37:54;3.60;;;1.73;;
3369;SDS011;42042;51.948;7.628;2022-09-16T12:40:24;4.33;;;1.90;;
3369;SDS011;42042;51.948;7.628;2022-09-16T12:43:05;2.23;;;1.40;;
3369;SDS011;42042;51.948;7.628;2022-09-16T12:51:08;4.67;;;1.40;;
3369;SDS011;42042;51.948;7.628;2022-09-16T12:53:53;12.83;;;2.07;;
3369;SDS011;42042;51.948;7.628;2022-09-16T12:56:28;4.37;;;1.60;;
3369;SDS011;42042;51.948;7.628;2022-09-16T12:59:02;2.43;;;1.30;;
3369;SDS011;42042;51.948;7.628;2022-09-16T13:01:33;4.03;;;1.77;;
3369;SDS011;42042;51.948;7.628;2022-09-16T13:04:02;3.90;;;1.50;;
3369;SDS011;42042;51.948;7.628;2022-09-16T13:06:32;5.27;;;1.87;;
3369;SDS011;42042;51.948;7.628;2022-09-16T13:09:10;3.90;;;1.50;;
3369;SDS011;42042;51.948;7.628;2022-09-16T13:11:40;3.60;;;1.10;;
3369;SDS011;42042;51.948;7.628;2022-09-16T13:14:13;1.80;;;1.13;;
3369;SDS011;42042;51.948;7.628;2022-09-16T13:16:50;2.13;;;1.20;;
3369;SDS011;42042;51.948;7.628;2022-09-16T13:19:26;4.33;;;1.30;;
3369;SDS011;42042;51.948;7.628;2022-09-16T13:21:57;5.50;;;1.73;;
3369;SDS011;42042;51.948;7.628;2022-09-16T13:24:29;3.33;;;1.70;;
3369;SDS011;42042;51.948;7.628;2022-09-16T13:26:57;7.00;;;1.90;;
3369;SDS011;42042;51.948;7.628;2022-09-16T13:29:37;5.33;;;1.47;;
3369;SDS011;42042;51.948;7.628;2022-09-16T13:34:58;5.20;;;2.23;;
3369;SDS011;42042;51.948;7.628;2022-09-16T13:37:27;10.77;;;2.03;;
3369;SDS011;42042;51.948;7.628;2022-09-16T13:39:54;6.37;;;2.47;;
3369;SDS011;42042;51.948;7.628;2022-09-16T13:42:21;4.77;;;2.03;;
3369;SDS011;42042;51.948;7.628;2022-09-16T13:44:50;4.93;;;2.13;;
3369;SDS011;42042;51.948;7.628;2022-09-16T13:47:28;2.40;;;1.50;;
3369;SDS011;42042;51.948;7.628;2022-09-16T13:49:59;11.07;;;2.00;;
3369;SDS011;42042;51.948;7.628;2022-09-16T13:52:29;10.17;;;3.00;;
3369;SDS011;42042;51.948;7.628;2022-09-16T13:54:57;7.03;;;2.13;;
3369;SDS011;42042;51.948;7.628;2022-09-16T13:57:31;4.43;;;2.17;;
3369;SDS011;42042;51.948;7.628;2022-09-16T14:00:05;4.20;;;1.80;;
3369;SDS011;42042;51.948;7.628;2022-09-16T14:02:44;6.77;;;2.30;;
3369;SDS011;42042;51.948;7.628;2022-09-16T14:05:22;5.60;;;1.67;;
3369;SDS011;42042;51.948;7.628;2022-09-16T14:07:55;13.00;;;2.03;;
3369;SDS011;42042;51.948;7.628;2022-09-16T14:10:24;5.00;;;1.93;;
3369;SDS011;42042;51.948;7.628;2022-09-16T14:12:56;5.17;;;1.77;;
3369;SDS011;42042;51.948;7.628;2022-09-16T14:15:26;5.33;;;1.93;;
3369;SDS011;42042;51.948;7.628;2022-09-16T14:17:54;5.03;;;1.53;;
3369;SDS011;42042;51.948;7.628;2022-09-16T14:20:23;5.10;;;1.67;;
3369;SDS011;42042;51.948;7.628;2022-09-16T14:23:00;5.73;;;1.63;;
3369;SDS011;42042;51.948;7.628;2022-09-16T14:25:28;7.50;;;1.93;;
3369;SDS011;42042;51.948;7.628;2022-09-16T14:28:09;9.53;;;1.77;;
3369;SDS011;42042;51.948;7.628;2022-09-16T14:30:36;7.53;;;1.70;;
3369;SDS011;42042;51.948;7.628;2022-09-16T14:33:10;4.13;;;1.57;;
3369;SDS011;42042;51.948;7.628;2022-09-16T14:35:38;3.20;;;1.70;;
3369;SDS011;42042;51.948;7.628;2022-09-16T14:38:07;4.20;;;1.90;;
3369;SDS011;42042;51.948;7.628;2022-09-16T14:40:34;5.13;;;2.00;;
3369;SDS011;42042;51.948;7.628;2022-09-16T14:43:06;9.60;;;1.90;;
3369;SDS011;42042;51.948;7.628;2022-09-16T14:45:34;4.53;;;1.90;;
3369;SDS011;42042;51.948;7.628;2022-09-16T14:48:04;4.63;;;2.13;;
3369;SDS011;42042;51.948;7.628;2022-09-16T14:50:34;3.30;;;2.10;;
3369;SDS011;42042;51.948;7.628;2022-09-16T14:53:03;6.60;;;1.80;;
3369;SDS011;42042;51.948;7.628;2022-09-16T14:55:32;5.73;;;1.60;;
3369;SDS011;42042;51.948;7.628;2022-09-16T14:58:01;4.03;;;1.80;;
3369;SDS011;42042;51.948;7.628;2022-09-16T15:00:29;6.07;;;1.70;;
3369;SDS011;42042;51.948;7.628;2022-09-16T15:02:58;3.90;;;1.50;;
3369;SDS011;42042;51.948;7.628;2022-09-16T15:05:28;7.13;;;2.13;;
3369;SDS011;42042;51.948;7.628;2022-09-16T15:07:58;6.00;;;1.40;;
3369;SDS011;42042;51.948;7.628;2022-09-16T15:10:29;6.00;;;2.00;;
3369;SDS011;42042;51.948;7.628;2022-09-16T15:12:58;5.23;;;2.03;;
3369;SDS011;42042;51.948;7.628;2022-09-16T15:15:27;9.00;;;1.97;;
3369;SDS011;42042;51.948;7.628;2022-09-16T15:17:57;2.30;;;1.43;;
3369;SDS011;42042;51.948;7.628;2022-09-16T15:20:25;3.77;;;1.60;;
3369;SDS011;42042;51.948;7.628;2022-09-16T15:22:53;10.17;;;2.47;;
3369;SDS011;42042;51.948;7.628;2022-09-16T15:25:21;4.67;;;1.70;;
3369;SDS011;42042;51.948;7.628;2022-09-16T15:27:50;3.23;;;1.70;;
3369;SDS011;42042;51.948;7.628;2022-09-16T15:30:21;3.43;;;1.73;;
3369;SDS011;42042;51.948;7.628;2022-09-16T15:32:48;3.53;;;1.67;;